Time;durP1;ratioP1;P1;durP2;ratioP2;P2;SDS_P1;SDS_P2;PMS_P1;PMS_P2;Temp;Humidity;BMP_temperature;BMP_pressure;BME280_temperature;BME280_humidity;BME280_pressure;Samples;Min_cycle;Max_cycle;Signal;HPM_P1;HPM_P2
2023/02/24 00:01:23;;;;;;;24.73;5.43;;;5.60;99.90;;;;;;5059139;28;20028;-91
2023/02/24 00:03:52;;;;;;;22.83;4.85;;;5.60;99.90;;;;;;5058512;28;20031;-91
2023/02/24 00:06:18;;;;;;;19.10;4.88;;;5.50;99.90;;;;;;5092074;28;20028;-91
2023/02/24 00:08:47;;;;;;;20.60;4.78;;;5.50;99.90;;;;;;5074492;28;20362;-92
2023/02/24 00:11:16;;;;;;;22.23;4.50;;;5.50;99.90;;;;;;5041499;28;20419;-92
2023/02/24 00:13:46;;;;;;;19.90;4.35;;;5.50;99.90;;;;;;5074728;28;20029;-91
2023/02/24 00:16:16;;;;;;;18.58;4.13;;;5.40;99.90;;;;;;5057707;28;20020;-91
2023/02/24 00:18:43;;;;;;;25.60;5.15;;;5.40;99.90;;;;;;5091414;28;20028;-91
2023/02/24 00:21:14;;;;;;;21.20;4.90;;;5.40;99.90;;;;;;5075109;28;20063;-91
2023/02/24 00:23:43;;;;;;;20.75;5.30;;;5.40;99.90;;;;;;5091360;28;20023;-93
2023/02/24 00:26:10;;;;;;;23.00;5.75;;;5.40;99.90;;;;;;5091645;28;20052;-91
2023/02/24 00:28:36;;;;;;;19.42;7.00;;;5.30;99.90;;;;;;5091019;28;20029;-92
2023/02/24 00:31:10;;;;;;;21.88;5.10;;;5.30;99.90;;;;;;5041487;28;20036;-92
2023/02/24 00:33:38;;;;;;;29.63;6.53;;;5.30;99.90;;;;;;5075397;28;20438;-92
2023/02/24 00:36:10;;;;;;;21.73;5.13;;;5.30;99.90;;;;;;5057139;28;20028;-92
2023/02/24 00:38:37;;;;;;;20.13;5.30;;;5.30;99.90;;;;;;5057709;28;20024;-91
2023/02/24 00:41:32;;;;;;;15.55;4.10;;;5.20;99.90;;;;;;5091376;28;20027;-91
2023/02/24 00:44:05;;;;;;;16.55;4.90;;;5.20;99.90;;;;;;5043926;28;20044;-91
2023/02/24 00:46:43;;;;;;;19.65;5.07;;;5.10;99.90;;;;;;5090936;28;20024;-92
2023/02/24 00:49:16;;;;;;;17.92;5.45;;;5.10;99.90;;;;;;5090792;28;20028;-91
2023/02/24 00:51:43;;;;;;;18.92;5.25;;;5.10;99.90;;;;;;5091145;28;20119;-91
2023/02/24 00:54:15;;;;;;;14.43;4.90;;;5.10;99.90;;;;;;5037148;28;20072;-91
2023/02/24 00:56:47;;;;;;;16.20;5.30;;;5.00;99.90;;;;;;5055423;28;20032;-92
2023/02/24 00:59:14;;;;;;;15.77;5.18;;;5.00;99.90;;;;;;5053829;28;20119;-91
2023/02/24 01:01:43;;;;;;;26.42;6.38;;;5.00;99.90;;;;;;5055279;28;20029;-91
2023/02/24 01:04:10;;;;;;;18.83;5.88;;;4.90;99.90;;;;;;5070495;28;20029;-92
2023/02/24 01:06:42;;;;;;;17.00;5.43;;;4.90;99.90;;;;;;5077150;28;20009;-91
2023/02/24 01:09:13;;;;;;;22.98;5.35;;;4.90;99.90;;;;;;5078037;28;20001;-91
2023/02/24 01:14:28;;;;;;;24.90;5.50;;;4.80;99.90;;;;;;5076696;28;20039;-92
2023/02/24 01:16:54;;;;;;;14.85;4.60;;;4.90;99.90;;;;;;5075450;28;20017;-92
2023/02/24 01:19:23;;;;;;;17.35;5.57;;;4.80;99.90;;;;;;5051886;28;20033;-92
2023/02/24 01:21:54;;;;;;;17.02;4.85;;;4.80;99.90;;;;;;5054027;28;20021;-92
2023/02/24 01:24:24;;;;;;;17.17;5.13;;;4.80;99.90;;;;;;5054116;28;20082;-91
2023/02/24 01:26:52;;;;;;;19.05;5.43;;;4.80;99.90;;;;;;5056469;28;20029;-91
2023/02/24 01:29:18;;;;;;;17.70;5.65;;;4.70;99.90;;;;;;5041874;28;20029;-91
2023/02/24 01:31:44;;;;;;;14.73;4.53;;;4.70;99.90;;;;;;5058106;28;20025;-92
2023/02/24 01:34:13;;;;;;;27.00;5.65;;;4.70;99.90;;;;;;5057878;28;20052;-91
2023/02/24 01:36:43;;;;;;;21.75;4.88;;;4.70;99.90;;;;;;5057852;28;20031;-92
2023/02/24 01:39:11;;;;;;;15.57;4.30;;;4.70;99.90;;;;;;5057362;28;20029;-92
2023/02/24 01:41:40;;;;;;;22.70;5.20;;;4.70;99.90;;;;;;5057570;28;20461;-92
2023/02/24 01:44:16;;;;;;;15.75;4.75;;;4.60;99.90;;;;;;5062975;28;20021;-90
2023/02/24 01:46:50;;;;;;;21.90;4.55;;;4.60;99.90;;;;;;5060534;28;20025;-91
2023/02/24 01:49:28;;;;;;;21.45;5.15;;;4.60;99.90;;;;;;5057689;28;20040;-91
2023/02/24 01:52:08;;;;;;;14.10;4.43;;;4.60;99.90;;;;;;5057932;28;20480;-91
2023/02/24 01:54:42;;;;;;;17.27;4.55;;;4.60;99.90;;;;;;5060202;28;20163;-92
2023/02/24 01:57:15;;;;;;;15.70;5.57;;;4.50;99.90;;;;;;5059502;28;20081;-93
2023/02/24 01:59:44;;;;;;;20.20;5.18;;;4.50;99.90;;;;;;5060712;28;20044;-93
2023/02/24 02:02:10;;;;;;;19.88;5.75;;;4.50;99.90;;;;;;5060553;28;20560;-92
2023/02/24 02:04:51;;;;;;;14.95;4.57;;;4.50;99.90;;;;;;5060747;28;20167;-91
2023/02/24 02:07:20;;;;;;;22.38;4.85;;;4.50;99.90;;;;;;5060515;28;20035;-92
2023/02/24 02:09:48;;;;;;;20.95;4.55;;;4.40;99.90;;;;;;5060201;28;20051;-93
2023/02/24 02:12:14;;;;;;;18.40;4.35;;;4.30;99.90;;;;;;5060454;28;20159;-91
2023/02/24 02:14:51;;;;;;;15.75;5.05;;;4.30;99.90;;;;;;5060538;28;20020;-92
2023/02/24 02:17:37;;;;;;;15.32;5.00;;;4.30;99.90;;;;;;5060099;28;20078;-91
2023/02/24 02:20:27;;;;;;;22.05;5.40;;;4.20;99.90;;;;;;5077745;28;20111;-91
2023/02/24 02:23:11;;;;;;;24.10;6.40;;;4.20;99.90;;;;;;5059901;28;20472;-96
2023/02/24 02:25:58;;;;;;;15.95;4.28;;;4.20;99.90;;;;;;5060206;28;20028;-91
2023/02/24 02:28:39;;;;;;;14.52;4.40;;;4.20;99.90;;;;;;5060066;28;20060;-91
2023/02/24 02:31:33;;;;;;;16.58;3.78;;;4.20;99.90;;;;;;5059892;28;20025;-92
2023/02/24 02:34:17;;;;;;;16.48;4.30;;;4.20;99.90;;;;;;5077712;28;20024;-91
2023/02/24 02:36:46;;;;;;;19.77;5.78;;;4.10;99.90;;;;;;5077478;28;20028;-92
2023/02/24 02:39:20;;;;;;;18.88;3.78;;;4.20;99.90;;;;;;5058868;28;20028;-91
2023/02/24 02:42:26;;;;;;;20.15;3.97;;;4.20;99.90;;;;;;5060161;28;20078;-91
2023/02/24 02:45:04;;;;;;;23.38;4.60;;;4.20;99.90;;;;;;5078330;28;20024;-91
2023/02/24 02:47:52;;;;;;;17.88;3.97;;;4.10;99.90;;;;;;5060762;28;20088;-91
2023/02/24 02:50:42;;;;;;;17.85;5.13;;;4.10;99.90;;;;;;5060133;28;20033;-90
2023/02/24 02:53:26;;;;;;;16.85;3.58;;;4.10;99.90;;;;;;5077108;28;20059;-91
2023/02/24 02:56:14;;;;;;;19.67;4.45;;;4.10;99.90;;;;;;5078198;28;20032;-91
2023/02/24 02:58:45;;;;;;;32.63;5.32;;;4.10;99.90;;;;;;5093022;28;20087;-91
2023/02/24 03:01:15;;;;;;;21.73;3.45;;;4.00;99.90;;;;;;5059377;28;20107;-90
2023/02/24 03:03:49;;;;;;;16.20;3.95;;;4.00;99.90;;;;;;5094569;28;20457;-92
2023/02/24 03:06:21;;;;;;;19.52;4.88;;;4.00;99.90;;;;;;5093972;28;20426;-92
2023/02/24 03:09:10;;;;;;;19.73;3.70;;;4.00;99.90;;;;;;5093801;28;20037;-90
2023/02/24 03:11:37;;;;;;;16.00;3.67;;;4.00;99.90;;;;;;5060211;28;20024;-90
2023/02/24 03:14:05;;;;;;;20.58;4.25;;;3.90;99.90;;;;;;5083882;28;20051;-90
2023/02/24 03:16:32;;;;;;;14.57;4.32;;;3.90;99.90;;;;;;5054735;28;20461;-91
2023/02/24 03:19:02;;;;;;;13.93;3.92;;;3.90;99.90;;;;;;5059160;28;20060;-90
2023/02/24 03:21:37;;;;;;;14.35;3.17;;;3.90;99.90;;;;;;5077363;28;20117;-90
2023/02/24 03:24:05;;;;;;;13.77;3.88;;;3.90;99.90;;;;;;5076957;28;20046;-93
2023/02/24 03:26:50;;;;;;;18.55;4.38;;;3.90;99.90;;;;;;5076638;28;20023;-91
2023/02/24 03:29:22;;;;;;;15.50;3.53;;;3.90;99.90;;;;;;5092607;28;20017;-91
2023/02/24 03:32:03;;;;;;;16.17;3.30;;;3.80;99.90;;;;;;5058448;28;20477;-91
2023/02/24 03:34:54;;;;;;;;;;;3.80;99.90;;;;;;5092894;28;20527;-92
2023/02/24 03:37:26;;;;;;;13.45;3.33;;;3.80;99.90;;;;;;5058553;28;19971;-91
2023/02/24 03:39:56;;;;;;;18.13;3.55;;;3.80;99.90;;;;;;5042799;28;20029;-91
2023/02/24 03:42:24;;;;;;;18.60;5.18;;;3.80;99.90;;;;;;5091775;28;20542;-90
2023/02/24 03:44:49;;;;;;;15.55;3.28;;;3.70;99.90;;;;;;5076573;28;20127;-91
2023/02/24 03:47:19;;;;;;;15.30;3.40;;;3.70;99.90;;;;;;5058217;28;20100;-91
2023/02/24 03:49:46;;;;;;;18.42;4.30;;;3.70;99.90;;;;;;5091820;28;20066;-91
2023/02/24 03:52:36;;;;;;;17.02;3.85;;;3.70;99.90;;;;;;5057759;28;20070;-91
2023/02/24 03:55:10;;;;;;;14.75;3.83;;;3.70;99.90;;;;;;5054741;28;20132;-91
2023/02/24 03:57:58;;;;;;;15.63;3.55;;;3.70;99.90;;;;;;5055050;28;20110;-91
2023/02/24 04:00:52;;;;;;;15.23;4.43;;;3.70;99.90;;;;;;5055867;28;20308;-91
2023/02/24 04:03:57;;;;;;;15.10;4.35;;;3.70;99.90;;;;;;5055727;28;20496;-91
2023/02/24 04:06:41;;;;;;;16.60;3.58;;;3.70;99.90;;;;;;5054867;28;20428;-91
2023/02/24 04:09:10;;;;;;;14.52;3.58;;;3.70;99.90;;;;;;5054824;28;20086;-91
2023/02/24 04:12:02;;;;;;;15.05;4.22;;;3.60;99.90;;;;;;5054989;28;20028;-90
2023/02/24 04:14:33;;;;;;;18.58;4.43;;;3.60;99.90;;;;;;5054138;28;20037;-91
2023/02/24 04:17:18;;;;;;;16.45;3.90;;;3.60;99.90;;;;;;5054954;28;20131;-92
2023/02/24 04:19:46;;;;;;;19.70;4.20;;;3.60;99.90;;;;;;5055529;28;20029;-91
2023/02/24 04:22:16;;;;;;;17.13;4.40;;;3.60;99.90;;;;;;5058363;28;20071;-92
2023/02/24 04:24:47;;;;;;;21.15;4.47;;;3.60;99.90;;;;;;5078152;28;20080;-92
2023/02/24 04:27:14;;;;;;;24.67;4.80;;;3.60;99.90;;;;;;5077914;28;20051;-93
2023/02/24 04:29:48;;;;;;;21.98;4.47;;;3.60;99.90;;;;;;5078028;28;20028;-91
2023/02/24 04:32:18;;;;;;;15.38;3.78;;;3.60;99.90;;;;;;5077794;28;20013;-94
2023/02/24 04:34:44;;;;;;;14.15;4.20;;;3.60;99.90;;;;;;5077677;28;20024;-92
2023/02/24 04:37:10;;;;;;;17.50;4.60;;;3.60;99.90;;;;;;5060278;28;20016;-93
2023/02/24 04:39:37;;;;;;;17.50;4.13;;;3.60;99.90;;;;;;5065441;28;20064;-91
2023/02/24 04:42:04;;;;;;;14.32;3.85;;;3.50;99.90;;;;;;5038077;28;20041;-92
2023/02/24 04:44:31;;;;;;;18.08;4.10;;;3.50;99.90;;;;;;5054062;28;20035;-91
2023/02/24 04:46:59;;;;;;;19.25;4.10;;;3.50;99.90;;;;;;5054750;28;20032;-91
2023/02/24 04:49:25;;;;;;;14.38;4.10;;;3.50;99.90;;;;;;5037043;28;20032;-90
2023/02/24 04:51:52;;;;;;;16.15;4.93;;;3.50;99.90;;;;;;5054552;28;20430;-91
2023/02/24 04:54:19;;;;;;;14.05;4.55;;;3.50;99.90;;;;;;5037305;28;20620;-91
2023/02/24 04:56:49;;;;;;;19.05;4.22;;;3.40;99.90;;;;;;5055382;28;20025;-91
2023/02/24 04:59:17;;;;;;;16.50;4.05;;;3.40;99.90;;;;;;5087392;28;20040;-92
2023/02/24 05:01:43;;;;;;;16.80;5.22;;;3.40;99.90;;;;;;5053373;28;20087;-93
2023/02/24 05:04:11;;;;;;;21.10;3.85;;;3.40;99.90;;;;;;5055272;28;20104;-90
2023/02/24 05:06:42;;;;;;;15.50;4.25;;;3.40;99.90;;;;;;5053918;28;20063;-92
2023/02/24 05:09:18;;;;;;;14.70;4.97;;;3.50;99.90;;;;;;5054033;28;20029;-91
2023/02/24 05:11:47;;;;;;;13.95;4.20;;;3.40;99.90;;;;;;5038893;28;20455;-92
2023/02/24 05:14:15;;;;;;;16.33;4.85;;;3.40;99.90;;;;;;5087793;28;20031;-91
2023/02/24 05:16:45;;;;;;;12.57;4.60;;;3.50;99.90;;;;;;5054411;28;20542;-91
2023/02/24 05:21:58;;;;;;;13.50;4.18;;;3.40;99.90;;;;;;5062234;28;20116;-91
2023/02/24 05:24:27;;;;;;;12.95;4.15;;;3.40;99.90;;;;;;5036921;28;20116;-90
2023/02/24 05:26:57;;;;;;;19.30;5.55;;;3.30;99.90;;;;;;5054271;28;20389;-91
2023/02/24 05:29:27;;;;;;;17.75;4.80;;;3.30;99.90;;;;;;5053654;28;20037;-91
2023/02/24 05:31:58;;;;;;;18.60;5.38;;;3.40;99.90;;;;;;5055077;28;20029;-92
2023/02/24 05:34:24;;;;;;;19.75;5.10;;;3.40;99.90;;;;;;5054413;28;20037;-91
2023/02/24 05:36:50;;;;;;;22.55;4.35;;;3.40;99.90;;;;;;5036125;28;20174;-91
2023/02/24 05:39:18;;;;;;;14.13;4.00;;;3.40;99.90;;;;;;5052613;28;20108;-91
2023/02/24 05:41:47;;;;;;;18.08;4.18;;;3.30;99.90;;;;;;5053799;28;20110;-91
2023/02/24 05:44:15;;;;;;;16.27;4.20;;;3.30;99.90;;;;;;5053420;28;20025;-91
2023/02/24 05:46:44;;;;;;;18.63;4.50;;;3.30;99.90;;;;;;5054004;28;20052;-91
2023/02/24 05:49:25;;;;;;;13.98;4.47;;;3.30;99.90;;;;;;5054581;28;20127;-91
2023/02/24 05:51:53;;;;;;;15.73;4.22;;;3.30;99.90;;;;;;5055360;28;20013;-92
2023/02/24 05:54:21;;;;;;;15.70;4.15;;;3.30;99.90;;;;;;5053301;28;20445;-92
2023/02/24 05:56:47;;;;;;;16.38;3.75;;;3.30;99.90;;;;;;5053619;28;20057;-91
2023/02/24 05:59:17;;;;;;;19.20;3.67;;;3.30;99.90;;;;;;5053255;28;20022;-91
2023/02/24 06:01:45;;;;;;;16.40;4.13;;;3.30;99.90;;;;;;5053908;28;20108;-91
2023/02/24 06:04:19;;;;;;;12.38;3.35;;;3.30;99.90;;;;;;5053835;28;20044;-91
2023/02/24 06:06:51;;;;;;;13.82;4.15;;;3.30;99.90;;;;;;5053681;28;20025;-91
2023/02/24 06:09:22;;;;;;;12.50;3.75;;;3.30;99.90;;;;;;5053909;28;20029;-90
2023/02/24 06:11:48;;;;;;;13.63;3.72;;;3.40;99.90;;;;;;5054142;28;20099;-91
2023/02/24 06:14:14;;;;;;;15.60;3.97;;;3.30;99.90;;;;;;5058263;28;20028;-91
2023/02/24 06:16:42;;;;;;;11.40;4.07;;;3.30;99.90;;;;;;5056573;28;20017;-90
2023/02/24 06:19:10;;;;;;;11.13;3.30;;;3.40;99.90;;;;;;5057528;28;20028;-91
2023/02/24 06:21:40;;;;;;;12.20;3.38;;;3.40;99.90;;;;;;5058292;28;20032;-91
2023/02/24 06:24:09;;;;;;;13.20;3.65;;;3.40;99.90;;;;;;5023703;28;20029;-90
2023/02/24 06:26:42;;;;;;;13.55;3.53;;;3.40;99.90;;;;;;5039941;28;20025;-90
2023/02/24 06:29:14;;;;;;;11.70;3.33;;;3.40;99.90;;;;;;5024307;28;20029;-91
2023/02/24 06:31:40;;;;;;;12.63;3.50;;;3.40;99.90;;;;;;5022848;28;20025;-91
2023/02/24 06:34:09;;;;;;;10.68;3.33;;;3.40;99.90;;;;;;5022618;28;20465;-90
2023/02/24 06:36:36;;;;;;;14.20;3.65;;;3.40;99.90;;;;;;5039808;28;20473;-91
2023/02/24 06:39:03;;;;;;;11.88;3.40;;;3.40;99.90;;;;;;5040094;28;20124;-91
2023/02/24 06:41:28;;;;;;;14.95;3.88;;;3.40;99.90;;;;;;5023354;28;20564;-90
2023/02/24 06:43:54;;;;;;;14.48;3.55;;;3.40;99.90;;;;;;5023604;28;20119;-91
2023/02/24 06:46:20;;;;;;;9.35;3.80;;;3.50;99.90;;;;;;5023690;28;20350;-90
2023/02/24 06:48:46;;;;;;;12.60;3.47;;;3.50;99.90;;;;;;5041020;28;20037;-89
2023/02/24 06:51:14;;;;;;;15.55;3.85;;;3.50;99.90;;;;;;5045599;28;20036;-92
2023/02/24 06:53:42;;;;;;;10.88;3.65;;;3.50;99.90;;;;;;5061712;28;20117;-91
2023/02/24 06:56:18;;;;;;;14.70;3.45;;;3.50;99.90;;;;;;5058987;28;20068;-91
2023/02/24 06:58:51;;;;;;;12.95;3.35;;;3.50;99.90;;;;;;5059584;28;20143;-88
2023/02/24 07:01:24;;;;;;;18.13;3.83;;;3.50;99.90;;;;;;5059725;28;20021;-90
2023/02/24 07:06:34;;;;;;;24.08;3.35;;;3.50;99.90;;;;;;5061708;28;20037;-89
2023/02/24 07:09:13;;;;;;;20.85;3.13;;;3.60;99.90;;;;;;5059610;28;20445;-89
2023/02/24 07:11:41;;;;;;;16.95;3.20;;;3.50;99.90;;;;;;5059763;28;20031;-88
2023/02/24 07:14:10;;;;;;;11.85;2.95;;;3.60;99.90;;;;;;5045024;28;20035;-91
2023/02/24 07:16:38;;;;;;;17.98;2.70;;;3.60;99.90;;;;;;5059148;28;20062;-89
2023/02/24 07:19:12;;;;;;;14.57;4.63;;;3.60;99.90;;;;;;5077015;28;20031;-91
2023/02/24 07:21:42;;;;;;;9.93;2.75;;;3.60;99.90;;;;;;5044729;28;20375;-90
2023/02/24 07:24:12;;;;;;;13.50;2.75;;;3.60;99.90;;;;;;5062507;28;20016;-90
2023/02/24 07:26:40;;;;;;;10.83;2.30;;;3.60;99.90;;;;;;5062197;28;20170;-90
2023/02/24 07:29:08;;;;;;;14.20;2.55;;;3.60;99.90;;;;;;5059423;28;20085;-89
2023/02/24 07:31:37;;;;;;;13.88;3.10;;;3.60;99.90;;;;;;5059323;28;20063;-88
2023/02/24 07:34:05;;;;;;;12.43;2.35;;;3.70;99.90;;;;;;5043519;28;20028;-91
2023/02/24 07:36:37;;;;;;;15.60;2.83;;;3.70;99.90;;;;;;5042654;28;20086;-90
2023/02/24 07:39:06;;;;;;;12.52;2.15;;;3.70;99.90;;;;;;5043065;28;20037;-90
2023/02/24 07:41:33;;;;;;;13.70;2.53;;;3.70;99.90;;;;;;5067851;28;20036;-88
2023/02/24 07:44:02;;;;;;;12.40;1.98;;;3.70;99.90;;;;;;5082148;28;20005;-88
2023/02/24 07:46:28;;;;;;;11.65;3.17;;;3.70;99.90;;;;;;5082526;28;20017;-88
2023/02/24 07:48:55;;;;;;;13.45;2.63;;;3.80;99.90;;;;;;5081863;28;20039;-90
2023/02/24 07:51:23;;;;;;;12.77;2.20;;;3.80;99.90;;;;;;5081976;28;20024;-89
2023/02/24 07:53:58;;;;;;;8.73;2.00;;;3.80;99.90;;;;;;5081126;28;20035;-90
2023/02/24 07:56:27;;;;;;;11.70;2.20;;;3.80;99.90;;;;;;5077180;28;20028;-89
2023/02/24 07:59:14;;;;;;;7.03;1.98;;;3.90;99.90;;;;;;5058038;28;20052;-92
2023/02/24 08:01:48;;;;;;;13.15;3.20;;;3.90;99.90;;;;;;5058618;28;20056;-89
2023/02/24 08:04:29;;;;;;;12.23;2.30;;;3.90;99.90;;;;;;5054992;28;20032;-90
2023/02/24 08:07:13;;;;;;;14.13;2.65;;;3.90;99.90;;;;;;5039165;28;20079;-89
2023/02/24 08:12:08;;;;;;;10.23;1.75;;;4.00;99.90;;;;;;5056316;28;20029;-90
2023/02/24 08:14:43;;;;;;;19.65;3.13;;;4.00;99.90;;;;;;5022284;28;20476;-89
2023/02/24 08:17:10;;;;;;;12.18;2.05;;;4.10;99.90;;;;;;5056180;28;20021;-91
2023/02/24 08:19:38;;;;;;;8.95;1.95;;;4.10;99.90;;;;;;5038814;28;20423;-90
2023/02/24 08:25:05;;;;;;;9.98;2.35;;;4.10;99.90;;;;;;5057174;28;20087;-91
2023/02/24 08:27:37;;;;;;;12.50;2.15;;;4.20;99.90;;;;;;5038964;28;20111;-90
2023/02/24 08:30:08;;;;;;;16.95;2.60;;;4.20;99.90;;;;;;5038597;28;20063;-90
2023/02/24 08:35:59;;;;;;;9.48;2.15;;;4.20;99.90;;;;;;5054358;28;20123;-91
2023/02/24 08:38:38;;;;;;;8.45;2.22;;;4.30;99.90;;;;;;5041551;28;20032;-91
2023/02/24 08:41:05;;;;;;;9.20;2.20;;;4.30;99.90;;;;;;5039148;28;20037;-92
2023/02/24 08:43:38;;;;;;;12.70;2.15;;;4.30;99.90;;;;;;5038844;28;20036;-92
2023/02/24 08:46:12;;;;;;;15.98;3.30;;;4.30;99.90;;;;;;5043457;28;20052;-91
2023/02/24 08:48:55;;;;;;;12.27;3.20;;;4.40;99.90;;;;;;5055820;28;20144;-91
2023/02/24 09:10:53;;;;;;;12.13;2.80;;;4.50;99.90;;;;;;5075873;28;20415;-89
2023/02/24 09:13:19;;;;;;;13.45;2.90;;;4.50;99.90;;;;;;5058197;28;20483;-90
2023/02/24 09:15:44;;;;;;;16.45;2.38;;;4.50;99.90;;;;;;5042208;28;20025;-90
2023/02/24 09:18:13;;;;;;;14.77;2.65;;;4.50;99.90;;;;;;5041524;28;20044;-90
2023/02/24 09:21:23;;;;;;;13.00;1.90;;;4.50;99.90;;;;;;5041398;28;20036;-89
2023/02/24 09:23:45;;;;;;;17.00;3.45;;;4.60;99.90;;;;;;5074705;28;20045;-93
2023/02/24 09:26:14;;;;;;;10.13;2.40;;;4.60;99.90;;;;;;5066686;28;20000;-91
2023/02/24 09:28:54;;;;;;;18.58;2.45;;;4.60;99.90;;;;;;5063599;28;20458;-95
2023/02/24 09:31:22;;;;;;;9.48;2.67;;;4.60;99.90;;;;;;5057215;28;20017;-92
2023/02/24 09:33:52;;;;;;;12.68;2.13;;;4.60;99.90;;;;;;5058159;28;20021;-91
2023/02/24 09:36:26;;;;;;;9.82;2.28;;;4.70;99.90;;;;;;5058513;28;20024;-90
2023/02/24 09:41:55;;;;;;;13.90;2.47;;;4.70;99.90;;;;;;5057835;28;20617;-93
2023/02/24 09:44:38;;;;;;;13.30;2.90;;;4.70;99.90;;;;;;5057236;28;20032;-90
2023/02/24 09:47:09;;;;;;;12.10;2.63;;;4.70;99.90;;;;;;5058106;28;20368;-90
2023/02/24 09:49:48;;;;;;;11.60;2.40;;;4.80;99.90;;;;;;5078284;28;20025;-90
2023/02/24 09:52:16;;;;;;;13.23;2.70;;;4.80;99.90;;;;;;5061049;28;20024;-90
2023/02/24 09:55:17;;;;;;;20.25;3.30;;;4.80;99.90;;;;;;5079148;28;20028;-90
2023/02/24 09:58:03;;;;;;;14.27;2.75;;;4.80;99.90;;;;;;5080307;28;20032;-90
2023/02/24 10:00:32;;;;;;;17.85;2.85;;;4.80;99.90;;;;;;5078802;28;20056;-92
2023/02/24 10:04:10;;;;;;;15.40;3.13;;;4.80;99.90;;;;;;5045208;28;20496;-91
2023/02/24 10:06:13;;;;;;;10.30;4.22;;;4.90;99.90;;;;;;5070714;28;20035;-90
2023/02/24 10:08:54;;;;;;;15.73;2.72;;;4.90;99.90;;;;;;5060739;28;20024;-90
2023/02/24 10:11:31;;;;;;;14.60;3.28;;;5.00;99.90;;;;;;5062042;28;20028;-91
2023/02/24 10:14:04;;;;;;;13.77;3.35;;;5.00;99.90;;;;;;5046737;28;20349;-90
2023/02/24 10:16:44;;;;;;;14.73;3.15;;;5.10;99.90;;;;;;5061144;28;20460;-93
2023/02/24 10:19:22;;;;;;;16.13;3.38;;;5.10;99.90;;;;;;5059998;28;20449;-89
2023/02/24 10:21:59;;;;;;;17.50;3.85;;;5.10;99.90;;;;;;5060348;28;20074;-88
2023/02/24 10:24:46;;;;;;;18.33;3.55;;;5.10;99.90;;;;;;5060127;28;20020;-89
2023/02/24 10:27:51;;;;;;;11.88;3.20;;;5.20;99.90;;;;;;5060168;28;20024;-91
2023/02/24 10:30:41;;;;;;;17.52;3.42;;;5.20;99.90;;;;;;5039423;28;20032;-88
2023/02/24 10:33:47;;;;;;;14.98;3.17;;;5.20;99.90;;;;;;5060166;28;20017;-88
2023/02/24 10:36:17;;;;;;;12.52;3.05;;;5.20;99.90;;;;;;5059361;28;20033;-87
2023/02/24 10:38:44;;;;;;;11.93;3.17;;;5.20;99.90;;;;;;5043851;28;20056;-87
2023/02/24 10:41:11;;;;;;;14.07;4.30;;;5.30;99.90;;;;;;5060503;28;20032;-88
2023/02/24 10:43:46;;;;;;;12.88;3.00;;;5.30;99.90;;;;;;5059447;28;20025;-87
2023/02/24 10:46:32;;;;;;;19.60;3.67;;;5.30;99.90;;;;;;5059784;28;20033;-88
2023/02/24 10:49:41;;;;;;;11.52;3.55;;;5.40;99.90;;;;;;5036526;28;20033;-89
2023/02/24 10:52:35;;;;;;;19.20;4.57;;;5.30;99.90;;;;;;5040564;28;20133;-89
2023/02/24 10:55:07;;;;;;;16.27;4.28;;;5.40;99.90;;;;;;5036425;28;20034;-89
2023/02/24 10:57:48;;;;;;;15.05;4.68;;;5.40;99.90;;;;;;5024481;28;20033;-89
2023/02/24 11:00:29;;;;;;;17.90;4.20;;;5.40;99.90;;;;;;5042714;28;20144;-87
2023/02/24 11:03:12;;;;;;;17.45;4.60;;;5.40;99.90;;;;;;5058678;28;20106;-94
2023/02/24 11:08:38;;;;;;;16.77;4.95;;;5.50;99.90;;;;;;5051819;28;20065;-87
2023/02/24 11:17:13;;;;;;;17.88;4.65;;;5.50;99.90;;;;;;5049468;28;20033;-88
2023/02/24 11:17:15;;;;;;;13.25;4.43;;;5.60;99.90;;;;;;5020273;28;20107;-87
2023/02/24 11:19:53;;;;;;;21.20;6.20;;;5.50;99.90;;;;;;5031720;28;20048;-86
2023/02/24 11:22:24;;;;;;;16.65;5.45;;;5.60;99.90;;;;;;5058414;28;20021;-88
2023/02/24 11:24:50;;;;;;;18.42;5.65;;;5.60;99.90;;;;;;5058864;28;20025;-88
2023/02/24 11:27:23;;;;;;;17.70;6.07;;;5.60;99.90;;;;;;5059824;28;20040;-88
2023/02/24 11:30:13;;;;;;;15.95;5.45;;;5.70;99.90;;;;;;5060607;28;20024;-89
2023/02/24 11:32:58;;;;;;;18.02;5.47;;;5.70;99.90;;;;;;5058843;28;20143;-89
2023/02/24 11:35:43;;;;;;;17.45;5.47;;;5.70;99.90;;;;;;5054951;28;20032;-90
2023/02/24 11:38:26;;;;;;;23.25;5.82;;;5.70;99.90;;;;;;5071887;28;20029;-90
2023/02/24 11:41:06;;;;;;;16.33;5.82;;;5.80;99.90;;;;;;5058937;28;20115;-90
2023/02/24 11:43:35;;;;;;;22.00;6.00;;;5.80;99.90;;;;;;5058853;28;20115;-87
2023/02/24 11:46:59;;;;;;;19.20;5.68;;;5.80;99.90;;;;;;5057833;28;20105;-88
2023/02/24 11:49:30;;;;;;;13.60;5.28;;;5.80;99.90;;;;;;5040018;28;20556;-89
2023/02/24 11:51:57;;;;;;;20.75;6.05;;;5.80;99.90;;;;;;5058488;28;20021;-88
2023/02/24 11:54:25;;;;;;;17.58;6.18;;;5.90;99.90;;;;;;5077775;28;20031;-92
2023/02/24 11:57:02;;;;;;;19.98;7.03;;;5.90;99.90;;;;;;5041925;28;20461;-90
2023/02/24 12:00:04;;;;;;;20.40;6.18;;;5.90;99.90;;;;;;5074371;28;20084;-90
2023/02/24 12:02:48;;;;;;;22.70;7.00;;;6.00;99.90;;;;;;5058023;28;20100;-89
2023/02/24 12:05:35;;;;;;;17.10;7.45;;;6.00;99.90;;;;;;5089960;28;20032;-88
2023/02/24 12:08:10;;;;;;;23.85;6.90;;;6.00;99.90;;;;;;5071800;28;20013;-90
2023/02/24 12:10:46;;;;;;;18.55;7.35;;;6.10;99.90;;;;;;5056421;28;20025;-90
2023/02/24 12:13:34;;;;;;;23.67;8.48;;;6.10;99.90;;;;;;5073015;28;20060;-89
2023/02/24 12:16:13;;;;;;;21.70;8.10;;;6.20;99.90;;;;;;5056115;28;20021;-89
2023/02/24 12:19:05;;;;;;;16.48;7.95;;;6.20;99.90;;;;;;5074559;28;20020;-90
2023/02/24 12:21:43;;;;;;;19.50;7.75;;;6.20;99.90;;;;;;5072787;28;20428;-88
2023/02/24 12:24:13;;;;;;;22.17;9.02;;;6.20;99.90;;;;;;5054966;28;20055;-91
2023/02/24 12:26:58;;;;;;;16.65;8.00;;;6.30;99.90;;;;;;5036959;28;20082;-90
2023/02/24 12:30:04;;;;;;;19.08;7.55;;;6.30;99.90;;;;;;5054299;28;20039;-89
2023/02/24 12:33:03;;;;;;;17.80;7.60;;;6.40;99.90;;;;;;5053598;28;20174;-90
2023/02/24 12:35:36;;;;;;;17.67;7.68;;;6.40;99.90;;;;;;5050581;28;20025;-89
2023/02/24 12:38:14;;;;;;;15.68;7.70;;;6.40;99.90;;;;;;5053801;28;20052;-89
2023/02/24 12:41:02;;;;;;;18.52;7.65;;;6.40;99.90;;;;;;5053934;28;20056;-87
2023/02/24 12:43:52;;;;;;;20.85;7.97;;;6.50;99.90;;;;;;5036876;28;20045;-86
2023/02/24 12:46:34;;;;;;;17.55;7.50;;;6.50;99.90;;;;;;5054826;28;20056;-89
2023/02/24 12:49:08;;;;;;;12.88;7.00;;;6.50;99.90;;;;;;5037899;28;20077;-91
2023/02/24 12:51:55;;;;;;;15.10;7.13;;;6.50;99.90;;;;;;5070026;28;20025;-88
2023/02/24 12:54:42;;;;;;;11.60;6.72;;;6.50;99.90;;;;;;5053466;28;20036;-90
2023/02/24 12:57:29;;;;;;;18.58;8.13;;;6.60;99.90;;;;;;5052733;28;20480;-89
2023/02/24 12:59:56;;;;;;;14.43;7.38;;;6.60;99.90;;;;;;5053396;28;20485;-89
2023/02/24 13:03:01;;;;;;;17.33;8.40;;;6.60;99.90;;;;;;5031737;28;20049;-91
2023/02/24 13:05:47;;;;;;;19.02;9.15;;;6.70;99.90;;;;;;5062782;28;20041;-89
2023/02/24 13:08:35;;;;;;;17.50;8.57;;;6.80;99.90;;;;;;5048821;28;20029;-90
2023/02/24 13:11:32;;;;;;;21.42;8.63;;;6.90;99.90;;;;;;5066879;28;20026;-89
2023/02/24 13:14:21;;;;;;;22.08;8.82;;;7.00;99.90;;;;;;5067230;28;20049;-89
2023/02/24 13:16:47;;;;;;;19.95;8.48;;;7.00;99.90;;;;;;5041899;28;20394;-89
2023/02/24 13:19:27;;;;;;;17.10;8.55;;;7.10;99.90;;;;;;5050427;28;20046;-88
2023/02/24 13:22:10;;;;;;;16.17;8.90;;;7.20;99.90;;;;;;5034677;28;20044;-88
2023/02/24 13:24:57;;;;;;;22.42;10.05;;;7.20;99.90;;;;;;5038987;28;20022;-89
2023/02/24 13:27:39;;;;;;;24.23;10.57;;;7.30;99.90;;;;;;5033893;28;20128;-89
2023/02/24 13:30:24;;;;;;;23.63;9.98;;;7.40;99.90;;;;;;5037588;28;20457;-88
2023/02/24 13:32:59;;;;;;;22.85;10.27;;;7.50;99.90;;;;;;5039238;28;20024;-87
2023/02/24 13:35:25;;;;;;;23.73;10.07;;;7.50;99.90;;;;;;5055251;28;20128;-89
2023/02/24 13:37:52;;;;;;;19.80;9.35;;;7.60;99.90;;;;;;5053995;28;20112;-88
2023/02/24 13:40:17;;;;;;;25.25;10.88;;;7.70;99.90;;;;;;5039009;28;20046;-89
2023/02/24 13:42:55;;;;;;;18.42;9.05;;;7.70;99.90;;;;;;5040789;28;20156;-88
2023/02/24 13:45:32;;;;;;;24.92;9.40;;;7.70;99.90;;;;;;5039561;28;20053;-88
2023/02/24 13:48:09;;;;;;;23.15;9.43;;;7.80;99.90;;;;;;5039669;28;20033;-89
2023/02/24 13:50:57;;;;;;;20.63;8.68;;;7.80;99.90;;;;;;5037480;28;20033;-89
2023/02/24 13:53:41;;;;;;;20.80;7.95;;;7.90;99.90;;;;;;5055251;28;20505;-89
2023/02/24 13:56:19;;;;;;;18.17;8.45;;;7.90;99.90;;;;;;5072355;28;20116;-88
2023/02/24 13:59:00;;;;;;;23.23;8.75;;;7.90;99.90;;;;;;5038681;28;20120;-89
2023/02/24 14:01:28;;;;;;;28.52;8.15;;;7.90;99.90;;;;;;5050507;28;20047;-88
2023/02/24 14:04:10;;;;;;;25.73;8.43;;;7.90;99.90;;;;;;5042891;28;20487;-89
2023/02/24 14:06:37;;;;;;;27.95;8.70;;;7.90;99.90;;;;;;5058984;28;20029;-91
2023/02/24 14:09:05;;;;;;;19.90;8.15;;;7.90;99.90;;;;;;5042434;28;20044;-89
2023/02/24 14:11:35;;;;;;;21.25;7.28;;;7.90;99.90;;;;;;5041591;28;20052;-89
2023/02/24 14:14:01;;;;;;;25.80;8.02;;;8.00;99.90;;;;;;5042172;28;20032;-88